createdAt,value
2023-01-10T00:00:15.574Z,43.09
2023-01-10T00:02:42.349Z,42.98
2023-01-10T00:05:09.491Z,42.91
2023-01-10T00:07:36.890Z,42.58
2023-01-10T00:10:03.828Z,43.01
2023-01-10T00:12:40.572Z,43.02
2023-01-10T00:15:07.632Z,43.06
2023-01-10T00:17:34.403Z,42.99
2023-01-10T00:20:01.209Z,42.82
2023-01-10T00:22:27.983Z,42.50
2023-01-10T00:24:54.827Z,42.55
2023-01-10T00:27:22.987Z,42.05
2023-01-10T00:29:52.623Z,42.29
2023-01-10T00:32:19.851Z,41.95
2023-01-10T00:34:46.758Z,41.90
2023-01-10T00:37:13.781Z,41.81
2023-01-10T00:39:40.492Z,41.85
2023-01-10T00:42:16.407Z,41.92
2023-01-10T00:44:43.504Z,41.75
2023-01-10T00:47:10.417Z,42.21
2023-01-10T00:49:37.135Z,41.99
2023-01-10T00:52:03.928Z,42.08
2023-01-10T00:54:31.113Z,42.06
2023-01-10T00:56:57.860Z,41.98
2023-01-10T00:59:24.937Z,42.03
2023-01-10T01:01:52.280Z,42.00
2023-01-10T01:04:19.188Z,41.78
2023-01-10T01:06:47.255Z,41.70
2023-01-10T01:09:14.246Z,41.75
2023-01-10T01:11:41.022Z,42.18
2023-01-10T01:14:07.781Z,42.00
2023-01-10T01:16:34.617Z,42.02
2023-01-10T01:19:01.438Z,41.62
2023-01-10T01:21:28.635Z,41.86
2023-01-10T01:23:57.176Z,41.76
2023-01-10T01:26:24.587Z,41.97
2023-01-10T01:28:51.327Z,41.93
2023-01-10T01:31:18.242Z,41.44
2023-01-10T01:33:46.062Z,41.81
2023-01-10T01:36:13.667Z,41.72
2023-01-10T01:38:41.174Z,41.64
2023-01-10T01:41:27.818Z,41.85
2023-01-10T01:44:03.057Z,41.68
2023-01-10T01:46:30.113Z,41.51
2023-01-10T01:48:57.007Z,41.57
2023-01-10T01:51:26.982Z,41.84
2023-01-10T01:53:57.581Z,41.38
2023-01-10T01:56:35.051Z,41.64
2023-01-10T01:59:11.595Z,41.43
2023-01-10T02:01:39.265Z,41.65
2023-01-10T02:04:10.317Z,41.39
2023-01-10T02:06:37.533Z,41.62
2023-01-10T02:09:16.528Z,42.01
2023-01-10T02:11:43.296Z,42.19
2023-01-10T02:14:10.425Z,42.27
2023-01-10T02:16:37.143Z,42.60
2023-01-10T02:19:09.264Z,42.41
2023-01-10T02:21:37.172Z,42.61
2023-01-10T02:24:13.618Z,42.97
2023-01-10T02:26:47.795Z,42.66
2023-01-10T02:29:15.788Z,42.67
2023-01-10T02:31:51.694Z,42.82
2023-01-10T02:34:27.747Z,43.07
2023-01-10T02:37:03.536Z,43.15
2023-01-10T02:39:36.786Z,42.97
2023-01-10T02:42:12.903Z,43.15
2023-01-10T02:44:40.810Z,43.16
2023-01-10T02:47:08.403Z,43.04
2023-01-10T02:49:45.486Z,43.12
2023-01-10T02:52:15.229Z,43.21
2023-01-10T02:54:42.251Z,42.93
2023-01-10T02:57:10.276Z,43.10
2023-01-10T02:59:46.662Z,43.29
2023-01-10T03:02:14.724Z,43.34
2023-01-10T03:04:53.814Z,43.12
2023-01-10T03:07:29.117Z,42.89
2023-01-10T03:10:05.745Z,42.95
2023-01-10T03:12:38.075Z,43.06
2023-01-10T03:15:06.729Z,43.29
2023-01-10T03:17:34.113Z,43.45
2023-01-10T03:20:02.674Z,43.35
2023-01-10T03:22:31.024Z,43.30
2023-01-10T03:24:59.803Z,43.13
2023-01-10T03:27:34.230Z,43.02
2023-01-10T03:30:04.421Z,43.08
2023-01-10T03:32:32.124Z,43.03
2023-01-10T03:35:00.493Z,43.04
2023-01-10T03:37:36.572Z,42.81
2023-01-10T03:40:12.611Z,42.95
2023-01-10T03:42:58.456Z,42.69
2023-01-10T03:45:29.182Z,42.68
2023-01-10T03:47:56.789Z,42.31
2023-01-10T03:50:25.306Z,42.37
2023-01-10T03:52:52.123Z,42.71
2023-01-10T03:55:20.780Z,42.19
2023-01-10T03:57:47.659Z,42.82
2023-01-10T04:00:15.023Z,42.49
2023-01-10T04:02:42.252Z,42.69
2023-01-10T04:05:09.916Z,42.52
2023-01-10T04:07:37.135Z,42.59
2023-01-10T04:10:04.630Z,42.67
2023-01-10T04:12:31.578Z,42.86
2023-01-10T04:14:58.536Z,42.83
2023-01-10T04:17:25.324Z,42.60
2023-01-10T04:19:52.111Z,42.85
2023-01-10T04:22:18.854Z,42.64
2023-01-10T04:24:47.413Z,42.58
2023-01-10T04:27:14.211Z,42.59
2023-01-10T04:29:40.984Z,42.80
2023-01-10T04:32:07.721Z,42.59
2023-01-10T04:34:34.483Z,42.84
2023-01-10T04:37:01.207Z,43.12
2023-01-10T04:39:27.923Z,43.33
2023-01-10T04:41:54.727Z,43.33
2023-01-10T04:44:21.463Z,43.35
2023-01-10T04:46:48.200Z,43.48
2023-01-10T04:49:14.941Z,43.58
2023-01-10T04:51:41.697Z,44.00
2023-01-10T04:54:08.421Z,43.86
2023-01-10T04:56:35.256Z,43.95
2023-01-10T04:59:02.001Z,44.10
2023-01-10T05:01:28.885Z,44.20
2023-01-10T05:03:56.000Z,44.15
2023-01-10T05:06:23.785Z,44.33
2023-01-10T05:08:50.520Z,44.36
2023-01-10T05:11:17.349Z,44.47
2023-01-10T05:13:44.838Z,44.63
2023-01-10T05:16:12.849Z,44.76
2023-01-10T05:18:39.732Z,45.15
2023-01-10T05:21:08.176Z,45.28
2023-01-10T05:23:34.909Z,45.12
2023-01-10T05:26:05.702Z,45.01
2023-01-10T05:28:32.533Z,45.48
2023-01-10T05:30:59.323Z,45.34
2023-01-10T05:33:26.060Z,45.58
2023-01-10T05:35:52.831Z,45.70
2023-01-10T05:38:19.571Z,45.53
2023-01-10T05:40:46.341Z,45.78
2023-01-10T05:43:13.121Z,45.72
2023-01-10T05:45:39.836Z,45.97
2023-01-10T05:48:06.746Z,45.80
2023-01-10T05:50:33.450Z,46.10
2023-01-10T05:53:03.981Z,45.87
2023-01-10T05:55:30.773Z,46.11
2023-01-10T05:57:57.487Z,46.24
2023-01-10T06:00:25.170Z,45.77
2023-01-10T06:02:54.502Z,46.04
2023-01-10T06:05:21.530Z,45.96
2023-01-10T06:07:48.309Z,46.32
2023-01-10T06:10:15.266Z,46.41
2023-01-10T06:12:42.151Z,46.59
2023-01-10T06:15:09.560Z,46.63
2023-01-10T06:17:36.332Z,46.44
2023-01-10T06:20:03.207Z,47.00
2023-01-10T06:22:29.979Z,46.67
2023-01-10T06:24:56.725Z,47.04
2023-01-10T06:27:23.481Z,46.75
2023-01-10T06:29:50.226Z,46.81
2023-01-10T06:32:17.058Z,47.16
2023-01-10T06:34:43.767Z,46.96
2023-01-10T06:37:10.539Z,47.33
2023-01-10T06:39:37.552Z,47.10
2023-01-10T06:42:04.306Z,47.43
2023-01-10T06:44:31.147Z,47.37
2023-01-10T06:46:57.870Z,46.95
2023-01-10T06:49:24.696Z,47.01
2023-01-10T06:51:51.417Z,47.42
2023-01-10T06:54:18.273Z,47.70
2023-01-10T06:56:47.362Z,47.65
2023-01-10T06:59:14.089Z,47.19
2023-01-10T07:01:40.919Z,47.71
2023-01-10T07:04:07.725Z,47.52
2023-01-10T07:06:38.280Z,47.31
2023-01-10T07:09:06.101Z,47.69
2023-01-10T07:11:33.751Z,47.58
2023-01-10T07:14:01.162Z,47.71
2023-01-10T07:16:28.077Z,47.59
2023-01-10T07:18:54.865Z,47.49
2023-01-10T07:21:21.646Z,47.65
2023-01-10T07:23:50.249Z,47.12
2023-01-10T07:26:19.212Z,47.30
2023-01-10T07:28:51.408Z,47.56
2023-01-10T07:31:19.098Z,47.74
2023-01-10T07:33:46.240Z,47.60
2023-01-10T07:36:13.052Z,47.18
2023-01-10T07:38:40.171Z,47.68
2023-01-10T07:41:06.937Z,47.56
2023-01-10T07:43:33.733Z,47.52
2023-01-10T07:46:02.292Z,47.19
2023-01-10T07:48:30.082Z,47.38
2023-01-10T07:50:57.924Z,47.21
2023-01-10T07:53:25.139Z,47.42
2023-01-10T07:55:51.922Z,47.08
2023-01-10T07:58:19.138Z,47.32
2023-01-10T08:00:46.540Z,47.07
2023-01-10T08:03:13.630Z,47.20
2023-01-10T08:05:40.621Z,47.17
2023-01-10T08:08:09.471Z,46.39
2023-01-10T08:10:37.000Z,46.71
2023-01-10T08:13:17.867Z,46.33
2023-01-10T08:15:47.634Z,46.42
2023-01-10T08:18:14.583Z,46.01
2023-01-10T08:20:41.547Z,46.14
2023-01-10T08:23:08.401Z,46.10
2023-01-10T08:25:35.223Z,45.89
2023-01-10T08:28:02.061Z,45.81
2023-01-10T08:30:29.604Z,45.93
2023-01-10T08:32:56.482Z,45.26
2023-01-10T08:35:23.335Z,45.13
2023-01-10T08:37:50.121Z,45.27
2023-01-10T08:40:16.964Z,45.34
2023-01-10T08:42:43.880Z,45.32
2023-01-10T08:45:11.125Z,45.32
2023-01-10T08:47:37.943Z,45.17
2023-01-10T08:50:07.933Z,44.96
2023-01-10T08:52:35.307Z,44.70
2023-01-10T08:55:02.190Z,44.68
2023-01-10T08:57:29.001Z,44.90
2023-01-10T08:59:55.809Z,44.73
2023-01-10T09:02:22.816Z,44.80
2023-01-10T09:04:49.753Z,45.26
2023-01-10T09:07:16.739Z,45.22
2023-01-10T09:09:43.669Z,45.50
2023-01-10T09:12:20.403Z,45.28
2023-01-10T09:14:47.302Z,45.24
2023-01-10T09:17:14.083Z,45.45
2023-01-10T09:19:41.537Z,45.60
2023-01-10T09:22:08.385Z,45.65
2023-01-10T09:24:36.125Z,45.77
2023-01-10T09:27:02.984Z,45.96
2023-01-10T09:29:29.875Z,46.14
2023-01-10T09:31:56.689Z,46.26
2023-01-10T09:34:25.284Z,46.11
2023-01-10T09:36:53.323Z,45.99
2023-01-10T09:39:21.523Z,45.89
2023-01-10T09:41:57.769Z,46.35
2023-01-10T09:44:25.825Z,46.42
2023-01-10T09:46:52.833Z,46.27
2023-01-10T09:49:26.779Z,46.36
2023-01-10T09:51:58.905Z,46.29
2023-01-10T09:54:28.967Z,46.56
2023-01-10T09:56:56.455Z,46.43
2023-01-10T09:59:25.403Z,46.26
2023-01-10T10:01:55.223Z,46.53
2023-01-10T10:04:33.627Z,46.16
2023-01-10T10:07:00.683Z,46.63
2023-01-10T10:09:30.310Z,46.67
2023-01-10T10:12:06.599Z,46.62
2023-01-10T10:14:53.550Z,46.92
2023-01-10T10:17:30.326Z,47.02
2023-01-10T10:19:58.342Z,46.60
2023-01-10T10:22:35.409Z,46.90
2023-01-10T10:25:15.167Z,46.93
2023-01-10T10:27:51.750Z,47.17
2023-01-10T10:30:32.203Z,47.25
2023-01-10T10:33:02.327Z,47.66
2023-01-10T10:35:38.892Z,47.56
2023-01-10T10:38:10.627Z,47.80
2023-01-10T10:40:39.947Z,47.41
2023-01-10T10:43:18.625Z,47.70
2023-01-10T10:45:47.858Z,47.68
2023-01-10T10:48:24.704Z,48.10
2023-01-10T10:50:59.183Z,47.97
2023-01-10T10:53:26.203Z,48.16
2023-01-10T10:55:53.685Z,48.22
2023-01-10T10:58:20.824Z,48.18
2023-01-10T11:00:48.286Z,48.37
2023-01-10T11:03:16.656Z,48.41
2023-01-10T11:05:45.290Z,48.27
2023-01-10T11:08:13.908Z,48.33
2023-01-10T11:10:42.830Z,48.09
2023-01-10T11:13:13.081Z,48.26
2023-01-10T11:15:42.721Z,48.69
2023-01-10T11:18:18.829Z,48.81
2023-01-10T11:20:48.307Z,48.96
2023-01-10T11:23:24.479Z,48.70
2023-01-10T11:25:51.568Z,48.57
2023-01-10T11:28:23.540Z,48.85
2023-01-10T11:30:51.390Z,48.52
2023-01-10T11:33:20.479Z,48.52
2023-01-10T11:35:56.805Z,48.96
2023-01-10T11:38:25.138Z,48.81
2023-01-10T11:40:54.889Z,48.94
2023-01-10T11:43:29.303Z,48.85
2023-01-10T11:45:59.562Z,48.68
2023-01-10T11:48:50.403Z,48.64
2023-01-10T11:51:18.140Z,48.78
2023-01-10T11:53:45.944Z,48.78
2023-01-10T11:56:14.765Z,48.73
2023-01-10T11:58:42.436Z,49.16
2023-01-10T12:01:26.219Z,48.96
2023-01-10T12:03:53.215Z,49.15
2023-01-10T12:06:20.987Z,49.17
2023-01-10T12:08:47.954Z,49.00
2023-01-10T12:11:15.984Z,48.92
2023-01-10T12:13:45.127Z,49.05
2023-01-10T12:16:22.762Z,48.26
2023-01-10T12:19:01.936Z,47.96
2023-01-10T12:21:32.956Z,48.36
2023-01-10T12:24:02.931Z,48.33
2023-01-10T12:26:31.302Z,48.31
2023-01-10T12:29:00.263Z,48.18
2023-01-10T12:31:29.472Z,48.72
2023-01-10T12:34:00.029Z,48.45
2023-01-10T12:36:27.161Z,48.80
2023-01-10T12:39:04.382Z,48.66
2023-01-10T12:41:43.679Z,48.63
2023-01-10T12:44:16.424Z,48.60
2023-01-10T12:47:06.552Z,48.65
2023-01-10T12:49:46.761Z,49.18
2023-01-10T12:52:18.565Z,48.94
2023-01-10T12:54:46.605Z,49.65
2023-01-10T12:57:22.277Z,50.80
2023-01-10T12:59:49.959Z,50.83
2023-01-10T13:02:19.306Z,50.97
2023-01-10T13:04:49.792Z,50.57
2023-01-10T13:07:17.833Z,50.36
2023-01-10T13:09:45.407Z,50.27
2023-01-10T13:12:17.766Z,50.08
2023-01-10T13:14:47.458Z,50.37
2023-01-10T13:17:15.936Z,50.07
2023-01-10T13:19:42.746Z,50.67
2023-01-10T13:22:18.435Z,50.00
2023-01-10T13:24:55.356Z,50.40
2023-01-10T13:27:24.261Z,49.88
2023-01-10T13:29:51.397Z,50.21
2023-01-10T13:32:21.871Z,50.17
2023-01-10T13:34:49.287Z,49.89
2023-01-10T13:37:23.592Z,49.99
2023-01-10T13:39:55.686Z,49.68
2023-01-10T13:42:34.377Z,49.68
2023-01-10T13:45:01.774Z,50.05
2023-01-10T13:47:37.650Z,49.72
2023-01-10T13:50:33.482Z,49.84
2023-01-10T13:53:01.545Z,49.83
2023-01-10T13:55:29.716Z,50.08
2023-01-10T13:57:57.873Z,49.76
2023-01-10T14:00:37.514Z,49.56
2023-01-10T14:03:04.882Z,49.92
2023-01-10T14:05:31.723Z,49.79
2023-01-10T14:07:58.965Z,49.63
2023-01-10T14:10:27.997Z,49.85
2023-01-10T14:13:00.257Z,49.50
2023-01-10T14:15:30.195Z,49.59
2023-01-10T14:17:58.905Z,49.63
2023-01-10T14:20:26.168Z,49.60
2023-01-10T14:23:03.004Z,49.72
2023-01-10T14:25:30.595Z,49.36
2023-01-10T14:27:59.304Z,49.51
2023-01-10T14:30:26.483Z,49.51
2023-01-10T14:32:56.899Z,48.98
2023-01-10T14:35:28.225Z,49.10
2023-01-10T14:37:56.924Z,49.05
2023-01-10T14:40:34.619Z,48.77
2023-01-10T14:43:03.055Z,48.65
2023-01-10T14:45:31.778Z,48.93
2023-01-10T14:47:58.675Z,48.91
2023-01-10T14:50:27.866Z,48.33
2023-01-10T14:52:55.455Z,48.20
2023-01-10T14:55:22.988Z,48.36
2023-01-10T14:57:54.935Z,48.43
2023-01-10T15:00:25.767Z,47.93
2023-01-10T15:02:52.755Z,48.15
2023-01-10T15:05:21.050Z,47.86
2023-01-10T15:07:47.966Z,47.85
2023-01-10T15:10:24.926Z,48.19
2023-01-10T15:12:53.613Z,48.15
2023-01-10T15:15:30.623Z,47.79
2023-01-10T15:17:58.524Z,47.94
2023-01-10T15:20:25.577Z,47.94
2023-01-10T15:22:57.855Z,48.07
2023-01-10T15:25:27.277Z,48.06
2023-01-10T15:27:54.827Z,47.94
2023-01-10T15:30:23.159Z,47.82
2023-01-10T15:32:51.184Z,48.16
2023-01-10T15:35:23.943Z,48.09
2023-01-10T15:37:56.475Z,47.92
2023-01-10T15:40:25.620Z,48.03
2023-01-10T15:42:53.761Z,47.95
2023-01-10T15:45:31.887Z,48.14
2023-01-10T15:48:04.082Z,48.38
2023-01-10T15:50:33.736Z,48.38
2023-01-10T15:53:05.148Z,48.30
2023-01-10T15:55:39.353Z,48.61
2023-01-10T15:58:14.234Z,48.75
2023-01-10T16:00:46.149Z,48.43
2023-01-10T16:03:20.379Z,48.70
2023-01-10T16:05:55.426Z,48.94
2023-01-10T16:08:26.897Z,48.97
2023-01-10T16:10:56.157Z,49.02
2023-01-10T16:13:32.427Z,49.06
2023-01-10T16:16:00.417Z,49.05
2023-01-10T16:18:27.796Z,48.53
2023-01-10T16:20:56.632Z,48.96
2023-01-10T16:23:25.569Z,48.64
2023-01-10T16:25:55.293Z,48.55
2023-01-10T16:28:22.577Z,48.67
2023-01-10T16:30:49.436Z,48.37
2023-01-10T16:33:17.973Z,48.50
2023-01-10T16:35:46.305Z,48.02
2023-01-10T16:38:14.988Z,48.17
2023-01-10T16:40:42.981Z,48.14
2023-01-10T16:43:18.320Z,48.04
2023-01-10T16:45:46.138Z,48.25
2023-01-10T16:48:13.634Z,48.11
2023-01-10T16:50:40.897Z,47.84
2023-01-10T16:53:08.607Z,48.02
2023-01-10T16:55:44.688Z,47.66
2023-01-10T16:58:12.143Z,47.80
2023-01-10T17:00:39.783Z,47.82
2023-01-10T17:03:10.364Z,47.78
2023-01-10T17:05:37.947Z,47.68
2023-01-10T17:08:05.253Z,48.09
2023-01-10T17:10:33.804Z,47.93
2023-01-10T17:13:02.390Z,48.10
2023-01-10T17:15:29.223Z,48.04
2023-01-10T17:17:56.202Z,48.41
2023-01-10T17:20:23.277Z,48.02
2023-01-10T17:22:50.163Z,48.13
2023-01-10T17:25:17.596Z,48.14
2023-01-10T17:27:45.164Z,48.50
2023-01-10T17:30:13.459Z,48.22
2023-01-10T17:32:40.641Z,48.26
2023-01-10T17:35:07.919Z,48.81
2023-01-10T17:37:35.133Z,48.45
2023-01-10T17:40:02.066Z,48.67
2023-01-10T17:42:29.009Z,48.91
2023-01-10T17:44:56.219Z,48.61
2023-01-10T17:47:23.139Z,48.79
2023-01-10T17:49:50.066Z,48.93
2023-01-10T17:52:16.972Z,49.03
2023-01-10T17:54:44.050Z,49.28
2023-01-10T17:57:11.929Z,48.95
2023-01-10T17:59:38.860Z,49.09
2023-01-10T18:02:06.436Z,49.27
2023-01-10T18:04:33.522Z,49.58
2023-01-10T18:07:00.508Z,49.45
2023-01-10T18:09:28.407Z,49.31
2023-01-10T18:11:55.288Z,49.70
2023-01-10T18:14:31.653Z,50.15
2023-01-10T18:16:58.642Z,50.04
2023-01-10T18:19:25.614Z,49.90
2023-01-10T18:21:52.612Z,49.48
2023-01-10T18:24:19.613Z,49.94
2023-01-10T18:26:47.073Z,49.93
2023-01-10T18:29:14.990Z,49.71
2023-01-10T18:31:42.317Z,49.78
2023-01-10T18:34:09.655Z,49.84
2023-01-10T18:36:40.092Z,49.97
2023-01-10T18:39:07.678Z,50.13
2023-01-10T18:41:34.513Z,50.24
2023-01-10T18:44:01.715Z,50.14
2023-01-10T18:46:29.340Z,50.02
2023-01-10T18:48:56.416Z,49.89
2023-01-10T18:51:25.110Z,49.54
2023-01-10T18:53:53.291Z,49.59
2023-01-10T18:56:20.136Z,49.66
2023-01-10T18:58:47.197Z,49.16
2023-01-10T19:01:15.487Z,49.13
2023-01-10T19:03:42.885Z,49.02
2023-01-10T19:06:11.727Z,48.96
2023-01-10T19:08:39.547Z,49.06
2023-01-10T19:11:13.783Z,49.16
2023-01-10T19:13:42.366Z,48.97
2023-01-10T19:16:10.619Z,48.97
2023-01-10T19:18:37.722Z,48.66
2023-01-10T19:21:04.961Z,48.99
2023-01-10T19:23:32.154Z,48.53
2023-01-10T19:25:58.998Z,48.43
2023-01-10T19:28:29.518Z,48.31
2023-01-10T19:31:04.065Z,48.23
2023-01-10T19:33:31.906Z,48.34
2023-01-10T19:35:58.755Z,48.11
2023-01-10T19:38:25.659Z,48.27
2023-01-10T19:40:52.853Z,48.24
2023-01-10T19:43:22.352Z,47.95
2023-01-10T19:45:49.308Z,47.92
2023-01-10T19:48:16.219Z,47.79
2023-01-10T19:50:43.004Z,47.66
2023-01-10T19:53:09.865Z,48.01
2023-01-10T19:55:36.850Z,48.01
2023-01-10T19:58:03.892Z,47.65
2023-01-10T20:00:31.001Z,47.62
2023-01-10T20:02:59.548Z,48.10
2023-01-10T20:05:27.005Z,47.82
2023-01-10T20:07:53.914Z,48.19
2023-01-10T20:10:20.950Z,47.85
2023-01-10T20:12:47.951Z,48.08
2023-01-10T20:15:14.893Z,48.20
2023-01-10T20:17:43.582Z,48.27
2023-01-10T20:20:10.894Z,48.05
2023-01-10T20:22:37.906Z,48.32
2023-01-10T20:25:04.951Z,48.16
2023-01-10T20:27:32.033Z,48.21
2023-01-10T20:29:58.995Z,48.56
2023-01-10T20:32:25.845Z,48.45
2023-01-10T20:34:53.292Z,48.65
2023-01-10T20:37:20.338Z,48.67
2023-01-10T20:39:47.294Z,48.44
2023-01-10T20:42:14.133Z,48.88
2023-01-10T20:44:41.198Z,48.93
2023-01-10T20:47:08.127Z,48.77
2023-01-10T20:49:35.097Z,48.98
2023-01-10T20:52:02.036Z,49.11
2023-01-10T20:54:28.916Z,48.72
2023-01-10T20:56:56.706Z,48.81
2023-01-10T20:59:25.878Z,49.15
2023-01-10T21:01:53.020Z,49.28
2023-01-10T21:04:19.984Z,48.88
2023-01-10T21:06:47.015Z,49.09
2023-01-10T21:09:16.782Z,49.33
2023-01-10T21:11:57.961Z,49.18
2023-01-10T21:14:30.889Z,49.00
2023-01-10T21:16:57.838Z,49.08
2023-01-10T21:19:24.675Z,49.59
2023-01-10T21:21:51.604Z,49.36
2023-01-10T21:24:19.307Z,49.44
2023-01-10T21:26:46.365Z,49.21
2023-01-10T21:29:13.771Z,49.71
2023-01-10T21:31:41.069Z,49.51
2023-01-10T21:34:08.087Z,49.49
2023-01-10T21:36:34.946Z,49.50
2023-01-10T21:41:36.624Z,49.77
2023-01-10T21:44:04.122Z,50.04
2023-01-10T21:46:31.282Z,50.03
2023-01-10T21:48:58.330Z,49.91
2023-01-10T21:51:25.286Z,49.70
2023-01-10T21:53:52.242Z,50.10
2023-01-10T21:56:19.158Z,49.82
2023-01-10T21:58:47.214Z,49.82
2023-01-10T22:01:14.869Z,49.97
2023-01-10T22:03:41.888Z,50.29
2023-01-10T22:06:08.830Z,50.42
2023-01-10T22:08:36.336Z,50.16
2023-01-10T22:11:03.444Z,50.17
2023-01-10T22:13:30.409Z,50.44
2023-01-10T22:15:58.587Z,50.84
2023-01-10T22:18:25.667Z,50.80
2023-01-10T22:20:54.389Z,50.96
2023-01-10T22:23:21.643Z,50.74
2023-01-10T22:25:57.786Z,50.65
2023-01-10T22:28:24.665Z,50.98
2023-01-10T22:30:51.538Z,50.94
2023-01-10T22:33:18.520Z,50.70
2023-01-10T22:35:45.345Z,50.28
2023-01-10T22:38:12.177Z,50.05
2023-01-10T22:40:39.225Z,50.08
2023-01-10T22:43:06.110Z,49.89
2023-01-10T22:45:33.795Z,50.09
2023-01-10T22:48:00.677Z,49.53
2023-01-10T22:50:27.686Z,49.78
2023-01-10T22:52:54.596Z,49.46
2023-01-10T22:55:21.472Z,49.28
2023-01-10T22:57:48.444Z,49.24
2023-01-10T23:00:15.542Z,48.79
2023-01-10T23:02:42.689Z,48.83
2023-01-10T23:05:09.829Z,49.11
2023-01-10T23:07:36.728Z,48.81
2023-01-10T23:10:04.678Z,48.88
2023-01-10T23:12:31.695Z,48.26
2023-01-10T23:14:58.503Z,48.42
2023-01-10T23:17:25.385Z,48.14
2023-01-10T23:19:52.355Z,47.90
2023-01-10T23:22:19.769Z,47.72
2023-01-10T23:24:46.729Z,47.31
2023-01-10T23:27:14.416Z,47.31
2023-01-10T23:29:41.245Z,47.39
2023-01-10T23:32:08.137Z,47.05
2023-01-10T23:34:35.005Z,47.04
2023-01-10T23:37:02.582Z,46.56
2023-01-10T23:39:29.453Z,46.55
2023-01-10T23:41:56.371Z,46.29
2023-01-10T23:44:23.460Z,46.33
2023-01-10T23:46:50.415Z,45.93
2023-01-10T23:49:17.196Z,45.72
2023-01-10T23:51:44.173Z,45.90
2023-01-10T23:54:11.071Z,45.76
2023-01-10T23:56:37.963Z,45.92
2023-01-10T23:59:04.863Z,45.90
